Downsville, New York
Current Conditions -  °F | °C
As of 8:15 AM on Wednesday 22 Oct 2014 (Local Time) from KMSV Reporting Station
Overcast Overcast  
Wind Chill: 45°   Ceiling: 2100
Heat Index: 48°   Visibility: 10mi
Dew Point: 46°   Wind: 7mph
Humidity: 93%   Direction: 50°NE
Pressure: 30"   Gusts: NA
Location:  42.08°N, 75°W
Report Text: KMSV 221215Z AUTO 05006KT 10SM OVC021 09/08 A3000 RMK AO1
Loading
Personal Weather Stations






























Interactive Weather Map
Tropical Storm Tracking
New forecast layout! Learn more

10-Day Weather Forecast

Advertisements
Track Severe Weather on mobile